Time;durP1;ratioP1;P1;durP2;ratioP2;P2;SDS_P1;SDS_P2;PMS_P1;PMS_P2;Temp;Humidity;BMP_temperature;BMP_pressure;BME280_temperature;BME280_humidity;BME280_pressure;Samples;Min_cycle;Max_cycle;Signal;HPM_P1;HPM_P2
2022/01/31 00:01:45;;;;;;;7.32;3.40;;;1.30;99.90;;;;;;4995217;28;20279;-78
2022/01/31 00:04:11;;;;;;;11.57;3.05;;;1.60;99.90;;;;;;4992639;28;20179;-79
2022/01/31 00:06:36;;;;;;;11.80;3.60;;;1.50;99.90;;;;;;4960283;28;20300;-80
2022/01/31 00:09:03;;;;;;;14.23;3.30;;;1.50;99.90;;;;;;4992216;28;20186;-80
2022/01/31 00:11:28;;;;;;;15.70;3.20;;;1.60;99.90;;;;;;4994025;28;21007;-78
2022/01/31 00:14:01;;;;;;;10.77;3.30;;;1.60;99.90;;;;;;4979183;28;20190;-78
2022/01/31 00:16:32;;;;;;;10.82;3.40;;;1.60;99.90;;;;;;4979995;28;20214;-79
2022/01/31 00:18:58;;;;;;;18.45;3.80;;;1.60;99.90;;;;;;4980138;28;20544;-79
2022/01/31 00:21:24;;;;;;;18.00;3.30;;;1.70;99.90;;;;;;4998026;28;20232;-79
2022/01/31 00:23:50;;;;;;;12.27;2.83;;;1.70;99.90;;;;;;4994836;28;20181;-80
2022/01/31 00:26:15;;;;;;;15.93;3.80;;;1.60;99.90;;;;;;4979732;28;20218;-78
2022/01/31 00:28:41;;;;;;;10.00;3.30;;;1.60;99.90;;;;;;4993539;28;20187;-79
2022/01/31 00:31:07;;;;;;;9.03;2.60;;;1.60;99.90;;;;;;4993257;28;20186;-78
2022/01/31 00:33:32;;;;;;;12.00;3.70;;;1.60;99.90;;;;;;4977710;28;20554;-78
2022/01/31 00:35:58;;;;;;;7.93;3.20;;;1.70;99.90;;;;;;4993440;28;20194;-78
2022/01/31 00:38:23;;;;;;;11.90;4.07;;;1.70;99.90;;;;;;4961248;28;20186;-77
2022/01/31 00:40:49;;;;;;;14.93;3.93;;;1.70;99.90;;;;;;4992277;28;20269;-78
2022/01/31 00:43:16;;;;;;;11.90;3.17;;;1.90;99.90;;;;;;4959296;28;20186;-79
2022/01/31 00:46:10;;;;;;;18.77;3.90;;;1.60;99.90;;;;;;4959625;28;20188;-79
2022/01/31 00:48:33;;;;;;;19.92;5.10;;;1.60;99.90;;;;;;4991371;28;20741;-78
2022/01/31 00:50:59;;;;;;;20.65;4.25;;;1.80;99.90;;;;;;4992282;28;20276;-78
2022/01/31 00:53:24;;;;;;;14.73;3.70;;;1.60;99.90;;;;;;4992646;28;20636;-80
2022/01/31 00:55:50;;;;;;;19.53;3.80;;;1.60;99.90;;;;;;4961119;28;20281;-79
2022/01/31 00:58:16;;;;;;;9.23;2.80;;;1.60;99.90;;;;;;4976146;28;20206;-80
2022/01/31 01:00:41;;;;;;;8.03;3.40;;;1.80;99.90;;;;;;4975301;28;20241;-80
2022/01/31 01:03:07;;;;;;;12.87;3.90;;;1.60;99.90;;;;;;4976101;28;20182;-79
2022/01/31 01:05:33;;;;;;;5.90;3.03;;;1.60;99.90;;;;;;4992207;28;20671;-79
2022/01/31 01:07:58;;;;;;;9.37;2.37;;;1.60;99.90;;;;;;4992298;28;20208;-81
2022/01/31 01:10:24;;;;;;;11.17;3.50;;;1.60;99.90;;;;;;4975951;28;20218;-79
2022/01/31 01:12:50;;;;;;;8.97;3.07;;;1.70;99.90;;;;;;4995017;28;20220;-79
2022/01/31 01:15:16;;;;;;;11.37;3.50;;;1.60;99.90;;;;;;4992064;28;20652;-79
2022/01/31 01:17:42;;;;;;;9.73;3.80;;;1.60;99.90;;;;;;4991717;28;20445;-77
2022/01/31 01:20:09;;;;;;;8.45;2.97;;;1.60;99.90;;;;;;4977072;28;21020;-81
2022/01/31 01:22:34;;;;;;;13.43;2.97;;;1.80;99.90;;;;;;4993117;28;20195;-80
2022/01/31 01:25:04;;;;;;;12.93;2.90;;;2.00;99.90;;;;;;4993139;28;20197;-79
2022/01/31 01:27:30;;;;;;;17.60;2.55;;;2.10;99.90;;;;;;4992490;28;20721;-79
2022/01/31 01:29:56;;;;;;;9.10;3.00;;;2.20;99.90;;;;;;4991771;28;20261;-81
2022/01/31 01:32:24;;;;;;;19.52;4.30;;;2.30;99.90;;;;;;4991823;28;20434;-81
2022/01/31 01:34:50;;;;;;;7.75;2.53;;;2.40;99.90;;;;;;4991236;28;20694;-81
2022/01/31 01:37:16;;;;;;;9.00;2.73;;;2.30;99.90;;;;;;4990892;28;20216;-79
2022/01/31 01:39:42;;;;;;;11.40;3.63;;;2.30;99.90;;;;;;4974539;28;20221;-79
2022/01/31 01:42:08;;;;;;;11.90;3.63;;;2.30;99.90;;;;;;4991538;28;20188;-79
2022/01/31 01:44:48;;;;;;;9.93;2.73;;;2.30;99.90;;;;;;4990446;28;20195;-80
2022/01/31 01:47:19;;;;;;;11.82;2.75;;;2.30;99.90;;;;;;4974324;28;20977;-78
2022/01/31 01:49:46;;;;;;;8.05;2.95;;;2.30;99.90;;;;;;4993083;28;20199;-79
2022/01/31 01:52:12;;;;;;;14.93;3.15;;;2.30;99.90;;;;;;4976915;28;20578;-81
2022/01/31 01:54:38;;;;;;;22.55;3.92;;;2.20;99.90;;;;;;4992586;28;20267;-79
2022/01/31 01:57:04;;;;;;;13.13;3.22;;;2.30;99.90;;;;;;4991652;28;20205;-80
2022/01/31 01:59:34;;;;;;;13.18;2.63;;;2.30;99.90;;;;;;4975653;28;20216;-81
2022/01/31 02:02:00;;;;;;;13.45;2.75;;;2.40;99.90;;;;;;4975875;28;20269;-80
2022/01/31 02:04:27;;;;;;;12.38;3.35;;;2.40;99.90;;;;;;4975222;28;20282;-79
2022/01/31 02:06:54;;;;;;;11.15;3.15;;;2.30;99.90;;;;;;4976495;28;20320;-81
2022/01/31 02:09:25;;;;;;;8.05;2.42;;;2.40;99.90;;;;;;4992081;28;20206;-79
2022/01/31 02:11:54;;;;;;;16.27;2.85;;;2.40;99.90;;;;;;4993256;28;20247;-81
2022/01/31 02:14:23;;;;;;;17.33;3.67;;;2.50;99.90;;;;;;4990271;28;20544;-80
2022/01/31 02:16:50;;;;;;;9.52;2.95;;;2.50;99.90;;;;;;4989910;28;20700;-81
2022/01/31 02:19:18;;;;;;;14.57;3.00;;;2.50;99.90;;;;;;4973847;28;20278;-80
2022/01/31 02:21:44;;;;;;;8.20;2.47;;;2.40;99.90;;;;;;4974854;28;20208;-79
2022/01/31 02:24:12;;;;;;;14.02;3.65;;;2.40;99.90;;;;;;4992663;28;20533;-79
2022/01/31 02:26:37;;;;;;;12.55;3.75;;;2.50;99.90;;;;;;4992222;28;20199;-79
2022/01/31 02:29:05;;;;;;;9.93;2.90;;;2.50;99.90;;;;;;4990702;28;20195;-81
2022/01/31 02:31:31;;;;;;;14.63;3.53;;;2.40;99.90;;;;;;4990706;28;20193;-80
2022/01/31 02:33:56;;;;;;;12.60;3.40;;;2.40;99.90;;;;;;4958294;28;20196;-79
2022/01/31 02:36:22;;;;;;;8.67;3.10;;;2.50;99.90;;;;;;4990113;28;20201;-81
2022/01/31 02:38:48;;;;;;;13.10;4.10;;;2.50;99.90;;;;;;4994197;28;20178;-79
2022/01/31 02:41:13;;;;;;;13.03;4.10;;;2.60;99.90;;;;;;5002794;28;20183;-80
2022/01/31 02:43:39;;;;;;;11.90;4.20;;;2.60;99.90;;;;;;4986674;28;20292;-80
2022/01/31 02:46:04;;;;;;;9.07;3.83;;;2.70;99.90;;;;;;4969310;28;20215;-79
2022/01/31 02:48:33;;;;;;;10.33;4.00;;;2.80;99.90;;;;;;4985263;28;20743;-80
2022/01/31 02:50:59;;;;;;;9.10;3.50;;;2.80;99.90;;;;;;5000848;28;20203;-79
2022/01/31 02:53:28;;;;;;;9.57;3.65;;;2.70;99.90;;;;;;4999336;28;20273;-81
2022/01/31 02:55:58;;;;;;;13.13;4.47;;;2.80;99.90;;;;;;4994138;28;20180;-78
2022/01/31 02:58:27;;;;;;;10.50;3.67;;;2.80;99.90;;;;;;4991589;28;20701;-78
2022/01/31 03:00:54;;;;;;;14.90;4.07;;;2.80;99.90;;;;;;4990455;28;20684;-79
2022/01/31 03:03:20;;;;;;;8.32;3.40;;;2.80;99.90;;;;;;4990989;28;20193;-79
2022/01/31 03:05:46;;;;;;;16.50;5.03;;;2.80;99.90;;;;;;4990220;28;20723;-80
2022/01/31 03:08:13;;;;;;;13.95;4.80;;;2.80;99.90;;;;;;4991647;28;20202;-80
2022/01/31 03:10:39;;;;;;;8.20;3.80;;;2.90;99.90;;;;;;4990349;28;20671;-77
2022/01/31 03:13:05;;;;;;;13.07;4.23;;;2.90;99.90;;;;;;4973650;28;20234;-80
2022/01/31 03:15:31;;;;;;;9.52;4.00;;;2.90;99.90;;;;;;4972559;28;20227;-78
2022/01/31 03:17:57;;;;;;;14.50;3.97;;;2.90;99.90;;;;;;4956545;28;20239;-78
2022/01/31 03:20:24;;;;;;;12.65;3.70;;;2.90;99.90;;;;;;4989264;28;20217;-78
2022/01/31 03:22:51;;;;;;;7.05;3.47;;;2.80;99.90;;;;;;4988860;28;20186;-80
2022/01/31 03:25:17;;;;;;;7.15;3.67;;;2.80;99.90;;;;;;4991856;28;20225;-79
2022/01/31 03:27:43;;;;;;;8.93;4.97;;;2.90;99.90;;;;;;4976592;28;20211;-80
2022/01/31 03:30:16;;;;;;;11.70;5.28;;;2.80;99.90;;;;;;4992922;28;20196;-80
2022/01/31 03:32:42;;;;;;;8.07;4.32;;;2.80;99.90;;;;;;4992755;28;20199;-79
2022/01/31 03:35:08;;;;;;;9.00;3.83;;;2.80;99.90;;;;;;4992375;28;20560;-78
2022/01/31 03:37:35;;;;;;;16.83;4.30;;;2.70;99.90;;;;;;4976219;28;20212;-78
2022/01/31 03:40:02;;;;;;;6.63;4.10;;;2.70;99.90;;;;;;4994491;28;20210;-80
2022/01/31 03:42:28;;;;;;;9.07;4.07;;;2.70;99.90;;;;;;4993608;28;20196;-79
2022/01/31 03:44:53;;;;;;;10.20;4.33;;;2.60;99.90;;;;;;4995195;28;20203;-78
2022/01/31 03:47:22;;;;;;;14.53;4.90;;;2.60;99.90;;;;;;4996364;28;20218;-80
2022/01/31 03:49:49;;;;;;;13.63;4.20;;;2.60;99.90;;;;;;4994731;28;20430;-80
2022/01/31 03:52:15;;;;;;;11.40;4.18;;;2.50;99.90;;;;;;4993886;28;20254;-80
2022/01/31 03:54:41;;;;;;;10.90;4.33;;;2.50;99.90;;;;;;4976683;28;20192;-82
2022/01/31 03:57:07;;;;;;;11.45;4.90;;;2.50;99.90;;;;;;4992041;28;20891;-80
2022/01/31 03:59:33;;;;;;;8.63;4.07;;;2.50;99.90;;;;;;4976303;28;20254;-79
2022/01/31 04:01:59;;;;;;;10.95;4.20;;;2.50;99.90;;;;;;4976212;28;20540;-79
2022/01/31 04:04:26;;;;;;;6.43;3.35;;;2.60;99.90;;;;;;4976312;28;20211;-79
2022/01/31 04:06:52;;;;;;;9.20;4.70;;;2.70;99.90;;;;;;4994648;28;20204;-80
2022/01/31 04:09:17;;;;;;;17.37;3.87;;;2.60;99.90;;;;;;4993179;28;20199;-79
2022/01/31 04:11:45;;;;;;;7.13;3.80;;;2.80;99.90;;;;;;4993834;28;20221;-79
2022/01/31 04:14:10;;;;;;;10.32;3.85;;;2.80;99.90;;;;;;4994567;28;20619;-79
2022/01/31 04:16:36;;;;;;;7.40;3.00;;;2.80;99.90;;;;;;4976660;28;20310;-78
2022/01/31 04:19:02;;;;;;;6.60;3.07;;;2.90;99.90;;;;;;4976294;28;20202;-79
2022/01/31 04:21:27;;;;;;;7.87;2.60;;;2.90;99.90;;;;;;4975814;28;20223;-79
2022/01/31 04:23:54;;;;;;;16.40;3.77;;;2.90;99.90;;;;;;4975455;28;20595;-79
2022/01/31 04:26:19;;;;;;;11.40;4.10;;;3.00;99.90;;;;;;4959339;28;20214;-78
2022/01/31 04:28:49;;;;;;;8.90;3.47;;;3.10;99.90;;;;;;4991452;28;20193;-78
2022/01/31 04:33:51;;;;;;;12.55;2.95;;;3.10;99.90;;;;;;4992662;28;20253;-78
2022/01/31 04:36:18;;;;;;;16.63;2.50;;;3.00;99.90;;;;;;4990569;28;20234;-78
2022/01/31 04:38:46;;;;;;;8.40;3.05;;;3.20;99.90;;;;;;4991190;28;20545;-80
2022/01/31 04:41:12;;;;;;;7.85;3.20;;;3.20;99.90;;;;;;4992657;28;20601;-79
2022/01/31 04:43:38;;;;;;;12.73;3.00;;;3.30;99.90;;;;;;4991982;28;20198;-78
2022/01/31 04:46:07;;;;;;;10.00;2.38;;;3.20;99.90;;;;;;4991338;28;20448;-78
2022/01/31 04:48:34;;;;;;;11.55;3.03;;;3.20;99.90;;;;;;4990949;28;20215;-78
2022/01/31 04:50:59;;;;;;;7.63;2.97;;;3.20;99.90;;;;;;4990759;28;20620;-78
2022/01/31 04:53:25;;;;;;;10.30;2.73;;;3.30;99.90;;;;;;4990928;28;20290;-79
2022/01/31 04:55:51;;;;;;;6.90;2.60;;;3.30;99.90;;;;;;4992730;28;20258;-80
2022/01/31 04:58:17;;;;;;;9.60;3.17;;;3.30;99.90;;;;;;4992535;28;21010;-80
2022/01/31 05:00:43;;;;;;;8.33;3.17;;;3.30;99.90;;;;;;4993108;28;20461;-80
2022/01/31 05:03:14;;;;;;;12.63;2.90;;;3.20;99.90;;;;;;4992107;28;20733;-80
2022/01/31 05:05:41;;;;;;;10.88;2.70;;;3.30;99.90;;;;;;4992690;28;20228;-80
2022/01/31 05:08:07;;;;;;;5.28;2.25;;;3.40;99.90;;;;;;4992636;28;20189;-81
2022/01/31 05:10:34;;;;;;;5.77;2.47;;;3.30;99.90;;;;;;4991813;28;20247;-76
2022/01/31 05:13:00;;;;;;;8.80;3.22;;;3.40;99.90;;;;;;4991292;28;20919;-77
2022/01/31 05:15:26;;;;;;;9.85;2.45;;;3.40;99.90;;;;;;4991148;28;20554;-76
2022/01/31 05:17:52;;;;;;;13.45;3.13;;;3.40;99.90;;;;;;4991121;28;21127;-77
2022/01/31 05:20:17;;;;;;;10.60;2.53;;;3.30;99.90;;;;;;4973620;28;20301;-76
2022/01/31 05:22:43;;;;;;;10.13;2.60;;;3.30;99.90;;;;;;4990107;28;20201;-77
2022/01/31 05:25:09;;;;;;;4.60;2.33;;;3.30;99.90;;;;;;4989980;28;20283;-77
2022/01/31 05:27:35;;;;;;;10.20;2.87;;;3.40;99.90;;;;;;4991468;28;20219;-77
2022/01/31 05:30:00;;;;;;;4.93;2.63;;;3.30;99.90;;;;;;4991743;28;20992;-77
2022/01/31 05:32:26;;;;;;;9.43;3.20;;;3.30;99.90;;;;;;4991439;28;20677;-77
2022/01/31 05:34:52;;;;;;;8.60;2.60;;;3.40;99.90;;;;;;4990109;28;20215;-77
2022/01/31 05:37:17;;;;;;;7.83;2.70;;;3.30;99.90;;;;;;4991434;28;20207;-77
2022/01/31 05:39:43;;;;;;;7.80;2.10;;;3.30;99.90;;;;;;4989128;28;20307;-76
2022/01/31 05:42:09;;;;;;;13.30;4.10;;;3.30;99.90;;;;;;4988440;28;20247;-77
2022/01/31 05:44:35;;;;;;;9.07;3.30;;;3.40;99.90;;;;;;4990755;28;20188;-76
2022/01/31 05:47:01;;;;;;;2.90;2.10;;;3.40;99.90;;;;;;4987400;28;20242;-76
2022/01/31 05:49:27;;;;;;;7.00;2.50;;;3.40;99.90;;;;;;4989351;28;20431;-76
2022/01/31 05:52:05;;;;;;;7.80;2.50;;;3.40;99.90;;;;;;4989048;28;20438;-76
2022/01/31 05:54:36;;;;;;;12.60;2.60;;;3.40;99.90;;;;;;4989326;28;20248;-76
2022/01/31 05:57:03;;;;;;;12.00;2.80;;;3.40;99.90;;;;;;4987675;28;20213;-76
2022/01/31 05:59:29;;;;;;;6.15;2.35;;;3.50;99.90;;;;;;4971520;28;20228;-76
2022/01/31 06:01:56;;;;;;;11.57;2.00;;;3.50;99.90;;;;;;4989136;28;20552;-76
2022/01/31 06:04:22;;;;;;;12.03;2.67;;;3.60;99.90;;;;;;4988969;28;20416;-76
2022/01/31 06:06:48;;;;;;;5.97;2.70;;;3.60;99.90;;;;;;4987389;28;20448;-76
2022/01/31 06:09:13;;;;;;;8.87;2.93;;;3.60;99.90;;;;;;4989050;28;20216;-76
2022/01/31 06:11:39;;;;;;;8.47;1.70;;;3.70;99.90;;;;;;4988669;28;20450;-76
2022/01/31 06:14:08;;;;;;;8.43;2.00;;;3.70;99.90;;;;;;4986942;28;20193;-76
2022/01/31 06:16:34;;;;;;;10.82;2.90;;;3.70;99.90;;;;;;4988460;28;20317;-76
2022/01/31 06:19:00;;;;;;;8.05;1.90;;;3.70;99.90;;;;;;4988261;28;20183;-76
2022/01/31 06:21:26;;;;;;;11.07;2.30;;;3.70;99.90;;;;;;4986804;28;20240;-76
2022/01/31 06:23:52;;;;;;;8.20;2.20;;;3.70;99.90;;;;;;4986877;28;20614;-76
2022/01/31 06:26:20;;;;;;;7.40;2.08;;;3.80;99.90;;;;;;4988440;28;20200;-76
2022/01/31 06:28:46;;;;;;;7.18;2.50;;;3.90;99.90;;;;;;4988373;28;20266;-76
2022/01/31 06:31:12;;;;;;;6.60;1.73;;;3.80;99.90;;;;;;4986679;28;20218;-76
2022/01/31 06:33:37;;;;;;;3.23;1.83;;;4.00;99.90;;;;;;4988268;28;20187;-76
2022/01/31 06:36:03;;;;;;;3.20;1.80;;;3.90;99.90;;;;;;4988088;28;20221;-76
2022/01/31 06:38:29;;;;;;;8.80;1.93;;;3.90;99.90;;;;;;4988463;28;20182;-76
2022/01/31 06:40:55;;;;;;;6.00;2.37;;;3.90;99.90;;;;;;4986595;28;20474;-76
2022/01/31 06:43:20;;;;;;;5.87;2.20;;;3.90;99.90;;;;;;4986567;28;20942;-76
2022/01/31 06:45:46;;;;;;;7.70;2.63;;;3.90;99.90;;;;;;4988022;28;20218;-76
2022/01/31 06:48:12;;;;;;;6.17;1.90;;;4.00;99.90;;;;;;4986550;28;20215;-76
2022/01/31 06:50:38;;;;;;;8.63;2.60;;;3.90;99.90;;;;;;4987949;28;20506;-76
2022/01/31 06:53:05;;;;;;;7.87;3.30;;;3.90;99.90;;;;;;4986531;28;20203;-77
2022/01/31 06:55:34;;;;;;;10.20;2.45;;;4.00;99.90;;;;;;4987861;28;20458;-76
2022/01/31 06:58:00;;;;;;;8.85;2.33;;;4.00;99.90;;;;;;4986977;28;20206;-76
2022/01/31 07:00:26;;;;;;;4.85;2.03;;;3.90;99.90;;;;;;4987623;28;20239;-76
2022/01/31 07:02:52;;;;;;;3.93;2.20;;;3.80;99.90;;;;;;4986277;28;20191;-76
2022/01/31 07:05:18;;;;;;;11.20;2.03;;;3.90;99.90;;;;;;4986416;28;20208;-77
2022/01/31 07:07:47;;;;;;;14.70;3.87;;;3.80;99.90;;;;;;4987495;28;20206;-77
2022/01/31 07:10:12;;;;;;;8.43;2.60;;;3.70;99.90;;;;;;4987915;28;20427;-77
2022/01/31 07:12:40;;;;;;;6.73;2.80;;;3.70;99.90;;;;;;4987771;28;20434;-77
2022/01/31 07:15:08;;;;;;;5.20;2.87;;;3.80;99.90;;;;;;4970438;28;20575;-78
2022/01/31 07:17:35;;;;;;;7.03;2.63;;;3.70;99.90;;;;;;4987598;28;20478;-77
2022/01/31 07:20:04;;;;;;;12.48;3.80;;;3.60;99.90;;;;;;4988132;28;20519;-78
2022/01/31 07:22:35;;;;;;;5.30;3.15;;;3.60;99.90;;;;;;4989883;28;20191;-77
2022/01/31 07:25:02;;;;;;;3.85;2.63;;;3.60;99.90;;;;;;4989957;28;20984;-78
2022/01/31 07:27:29;;;;;;;7.13;3.03;;;3.50;99.90;;;;;;4987758;28;20213;-78
2022/01/31 07:29:54;;;;;;;9.82;3.00;;;3.40;99.90;;;;;;4988347;28;20523;-78
2022/01/31 07:32:20;;;;;;;5.30;3.20;;;3.50;99.90;;;;;;4988689;28;20276;-78
2022/01/31 07:34:46;;;;;;;4.25;2.65;;;3.40;99.90;;;;;;4988632;28;20189;-78
2022/01/31 07:37:12;;;;;;;8.37;2.90;;;3.40;99.90;;;;;;4986992;28;20212;-78
2022/01/31 07:39:42;;;;;;;9.18;2.80;;;3.40;99.90;;;;;;4988725;28;20930;-77
2022/01/31 07:42:09;;;;;;;3.83;2.97;;;3.40;99.90;;;;;;4989330;28;20237;-78
2022/01/31 07:44:35;;;;;;;10.57;3.27;;;3.40;99.90;;;;;;4988577;28;20181;-77
2022/01/31 07:47:01;;;;;;;9.90;3.40;;;3.40;99.90;;;;;;4988047;28;20437;-77
2022/01/31 07:49:26;;;;;;;11.83;3.20;;;3.40;99.90;;;;;;4988109;28;20755;-78
2022/01/31 07:51:54;;;;;;;10.03;3.07;;;3.40;99.90;;;;;;4990210;28;21014;-79
2022/01/31 07:54:20;;;;;;;13.43;3.47;;;3.40;99.90;;;;;;4989576;28;20200;-78
2022/01/31 07:56:46;;;;;;;5.88;3.20;;;3.40;99.90;;;;;;4973004;28;20462;-77
2022/01/31 07:59:11;;;;;;;9.23;3.60;;;3.30;99.90;;;;;;4989479;28;20192;-79
2022/01/31 08:01:37;;;;;;;6.73;3.00;;;3.40;99.90;;;;;;4988322;28;20215;-78
2022/01/31 08:04:03;;;;;;;7.13;2.67;;;3.30;99.90;;;;;;4989804;28;20188;-78
2022/01/31 08:06:29;;;;;;;6.07;2.95;;;3.20;99.90;;;;;;4989738;28;20993;-78
2022/01/31 08:08:55;;;;;;;6.40;2.80;;;3.20;99.90;;;;;;4989536;28;20173;-78
2022/01/31 08:11:23;;;;;;;8.10;3.33;;;3.20;99.90;;;;;;4988563;28;20194;-78
2022/01/31 08:13:54;;;;;;;10.63;4.30;;;3.20;99.90;;;;;;4992681;28;20180;-78
2022/01/31 08:16:20;;;;;;;9.68;3.58;;;3.20;99.90;;;;;;4992187;28;20363;-78
2022/01/31 08:18:46;;;;;;;14.30;3.70;;;3.20;99.90;;;;;;4992652;28;20275;-78
2022/01/31 08:21:13;;;;;;;7.00;3.57;;;3.10;99.90;;;;;;4992669;28;20463;-78
2022/01/31 08:23:40;;;;;;;5.65;3.17;;;3.20;99.90;;;;;;4993177;28;20187;-79
2022/01/31 08:26:11;;;;;;;7.68;3.30;;;3.20;99.90;;;;;;4992353;28;20215;-79
2022/01/31 08:28:44;;;;;;;6.15;3.08;;;3.10;99.90;;;;;;4994001;28;20184;-78
2022/01/31 08:31:24;;;;;;;3.20;2.90;;;3.10;99.90;;;;;;4991846;28;20193;-78
2022/01/31 08:34:05;;;;;;;6.85;3.00;;;3.20;99.90;;;;;;4993325;28;20183;-78
2022/01/31 08:36:36;;;;;;;4.80;3.10;;;3.00;99.90;;;;;;4992940;28;20897;-78
2022/01/31 08:39:11;;;;;;;4.93;3.00;;;3.00;99.90;;;;;;4992381;28;20183;-78
2022/01/31 08:41:41;;;;;;;5.30;3.33;;;3.00;99.90;;;;;;4994596;28;20184;-79
2022/01/31 08:44:09;;;;;;;5.82;3.28;;;3.00;99.90;;;;;;4995872;28;20192;-78
2022/01/31 08:46:39;;;;;;;9.98;2.38;;;3.00;99.90;;;;;;4994280;28;20666;-80
2022/01/31 08:49:05;;;;;;;6.25;2.42;;;3.00;99.90;;;;;;4992535;28;20184;-78
2022/01/31 08:51:31;;;;;;;3.13;2.83;;;3.00;99.90;;;;;;4993168;28;20976;-78
2022/01/31 08:53:57;;;;;;;7.17;2.93;;;3.00;99.90;;;;;;4994763;28;20202;-78
2022/01/31 08:56:23;;;;;;;8.65;3.60;;;3.10;99.90;;;;;;4977138;28;20273;-79
2022/01/31 08:58:49;;;;;;;5.03;2.77;;;3.10;99.90;;;;;;4993521;28;20196;-79
2022/01/31 09:01:21;;;;;;;3.75;1.85;;;3.10;99.90;;;;;;4993198;28;20214;-78
2022/01/31 09:06:22;;;;;;;3.85;1.90;;;3.10;99.90;;;;;;4991068;28;20251;-78
2022/01/31 09:08:48;;;;;;;3.80;2.07;;;3.10;99.90;;;;;;4992137;28;20189;-78
2022/01/31 09:11:15;;;;;;;3.17;1.63;;;3.20;99.90;;;;;;4990937;28;20423;-78
2022/01/31 09:13:41;;;;;;;3.70;1.35;;;3.10;99.90;;;;;;4994847;28;20187;-77
2022/01/31 09:16:10;;;;;;;2.35;1.70;;;3.20;99.90;;;;;;4992641;28;20210;-78
2022/01/31 09:18:36;;;;;;;1.60;1.50;;;3.10;99.90;;;;;;4994457;28;20567;-78
2022/01/31 09:21:03;;;;;;;7.90;4.70;;;3.20;99.90;;;;;;4994658;28;20466;-79
2022/01/31 09:23:29;;;;;;;1.73;1.63;;;3.10;99.90;;;;;;4993503;28;20554;-77
2022/01/31 09:25:56;;;;;;;3.08;1.15;;;3.10;99.90;;;;;;4992233;28;20729;-78
2022/01/31 09:28:22;;;;;;;1.80;1.30;;;3.10;99.90;;;;;;4992429;28;20184;-78
2022/01/31 09:30:48;;;;;;;1.47;1.07;;;3.00;99.90;;;;;;4990695;28;20277;-79
2022/01/31 09:33:15;;;;;;;3.60;1.20;;;3.00;99.90;;;;;;4992837;28;20458;-78
2022/01/31 09:35:42;;;;;;;2.50;1.20;;;3.10;99.90;;;;;;4991262;28;20539;-78
2022/01/31 09:38:08;;;;;;;1.10;1.00;;;3.10;99.90;;;;;;4989563;28;20436;-78
2022/01/31 09:40:35;;;;;;;1.30;0.80;;;3.10;99.90;;;;;;4989471;28;20238;-78
2022/01/31 09:48:39;;;;;;;1.15;0.60;;;3.20;99.90;;;;;;4988341;28;20286;-79
2022/01/31 09:51:15;;;;;;;3.35;1.00;;;3.10;99.90;;;;;;4989283;28;20200;-78
2022/01/31 09:53:53;;;;;;;0.60;0.60;;;3.10;99.90;;;;;;4987915;28;20236;-77
2022/01/31 09:56:21;;;;;;;0.68;0.60;;;3.10;99.90;;;;;;4989259;28;20230;-78
2022/01/31 09:58:49;;;;;;;1.88;0.50;;;3.00;99.90;;;;;;4989141;28;20184;-78
2022/01/31 10:01:26;;;;;;;0.98;0.60;;;3.10;99.90;;;;;;4987750;28;20250;-78
2022/01/31 10:04:01;;;;;;;0.70;0.50;;;3.20;99.90;;;;;;4989100;28;20742;-78
2022/01/31 10:06:27;;;;;;;1.07;0.60;;;3.30;99.90;;;;;;4988816;28;20221;-78
2022/01/31 10:09:14;;;;;;;0.87;0.60;;;3.50;99.90;;;;;;4988786;28;20982;-78
2022/01/31 10:11:57;;;;;;;0.63;0.63;;;3.50;99.90;;;;;;4988846;28;20226;-78
2022/01/31 10:17:20;;;;;;;0.60;0.60;;;3.90;99.90;;;;;;4989135;28;20640;-78
2022/01/31 10:19:46;;;;;;;1.10;0.67;;;4.00;99.90;;;;;;4988731;28;20283;-78
2022/01/31 10:22:17;;;;;;;1.10;0.83;;;4.00;99.90;;;;;;4987287;28;20506;-78
2022/01/31 10:24:45;;;;;;;1.37;0.80;;;4.00;99.90;;;;;;4988952;28;20176;-78
2022/01/31 10:27:28;;;;;;;0.80;0.63;;;4.20;99.90;;;;;;4988994;28;20438;-78
2022/01/31 10:30:21;;;;;;;1.37;0.80;;;4.20;99.90;;;;;;4989220;28;20416;-78
2022/01/31 10:32:48;;;;;;;1.33;0.90;;;4.30;99.90;;;;;;4974234;28;20483;-78
2022/01/31 10:35:19;;;;;;;1.10;0.90;;;4.30;99.90;;;;;;4987811;28;20189;-78
2022/01/31 10:37:46;;;;;;;1.00;0.90;;;4.20;99.90;;;;;;4989051;28;20447;-78
2022/01/31 10:56:59;;;;;;;1.80;0.97;;;4.40;99.90;;;;;;4987345;28;20434;-79
2022/01/31 10:59:35;;;;;;;3.17;0.80;;;4.50;99.90;;;;;;4988635;28;20412;-78
2022/01/31 11:02:03;;;;;;;3.22;1.17;;;4.60;99.90;;;;;;4987448;28;20416;-77
2022/01/31 11:04:40;;;;;;;1.90;1.55;;;4.60;99.90;;;;;;4988689;28;20189;-78
2022/01/31 11:07:15;;;;;;;3.80;1.10;;;4.60;99.90;;;;;;4986914;28;20592;-78
2022/01/31 11:09:42;;;;;;;2.63;0.93;;;4.60;99.90;;;;;;4988719;28;20528;-77
2022/01/31 11:12:09;;;;;;;2.90;1.17;;;4.60;99.90;;;;;;4988355;28;20458;-77
2022/01/31 11:14:38;;;;;;;5.30;1.60;;;4.70;99.90;;;;;;4990402;28;20513;-78
2022/01/31 11:17:10;;;;;;;1.27;0.90;;;4.80;99.90;;;;;;4988248;28;20443;-78
2022/01/31 11:19:39;;;;;;;2.17;0.90;;;4.90;99.90;;;;;;4988566;28;20297;-78
2022/01/31 11:22:17;;;;;;;2.10;1.13;;;5.10;99.90;;;;;;4988495;28;20455;-78
2022/01/31 11:24:49;;;;;;;2.07;1.00;;;5.20;99.90;;;;;;4988612;28;20424;-78
2022/01/31 11:27:18;;;;;;;6.10;1.00;;;5.20;99.90;;;;;;4988666;28;20449;-76
2022/01/31 11:29:47;;;;;;;5.40;1.33;;;5.40;99.90;;;;;;4989309;28;20997;-79
2022/01/31 11:32:13;;;;;;;3.50;0.83;;;5.30;99.90;;;;;;4987028;28;20520;-78
2022/01/31 11:34:41;;;;;;;2.60;1.00;;;5.30;99.90;;;;;;4986046;28;20436;-77
2022/01/31 11:37:09;;;;;;;6.97;1.13;;;5.40;99.90;;;;;;4970492;28;20977;-78
2022/01/31 11:39:36;;;;;;;4.43;1.03;;;5.20;99.90;;;;;;4987726;28;20929;-78
2022/01/31 11:42:03;;;;;;;1.80;1.10;;;5.10;99.90;;;;;;4986325;28;20910;-78
2022/01/31 11:44:39;;;;;;;1.67;0.80;;;5.10;99.90;;;;;;4988471;28;20252;-78
2022/01/31 11:47:07;;;;;;;5.03;1.20;;;5.10;99.90;;;;;;4992187;28;20450;-78
2022/01/31 11:49:48;;;;;;;2.90;0.97;;;5.10;99.90;;;;;;4973889;28;20490;-78
2022/01/31 11:52:14;;;;;;;4.40;2.13;;;5.10;99.90;;;;;;4990029;28;20456;-78
2022/01/31 11:54:49;;;;;;;5.05;0.90;;;5.10;99.90;;;;;;4991875;28;20432;-78
2022/01/31 11:57:18;;;;;;;5.00;0.80;;;5.10;99.90;;;;;;4990857;28;20205;-77
2022/01/31 11:59:44;;;;;;;1.15;0.80;;;5.10;99.90;;;;;;4990655;28;20515;-76
2022/01/31 12:02:14;;;;;;;4.90;1.10;;;5.00;99.90;;;;;;4990555;28;20659;-77
2022/01/31 12:04:44;;;;;;;2.30;0.73;;;5.00;99.90;;;;;;4990661;28;20194;-77
2022/01/31 12:07:39;;;;;;;5.00;1.10;;;4.90;99.90;;;;;;4990784;28;20440;-77
2022/01/31 12:10:10;;;;;;;3.17;0.90;;;4.80;99.90;;;;;;4990699;28;20455;-76
2022/01/31 12:12:51;;;;;;;5.28;1.02;;;4.80;99.90;;;;;;4989622;28;20431;-77
2022/01/31 12:24:00;;;;;;;5.87;1.00;;;4.60;99.90;;;;;;4990534;28;20495;-77
2022/01/31 12:26:32;;;;;;;3.13;1.10;;;4.60;99.90;;;;;;4990431;28;20967;-77
2022/01/31 12:29:08;;;;;;;2.13;0.60;;;4.60;99.90;;;;;;4990662;28;20494;-77
2022/01/31 12:31:34;;;;;;;2.57;1.00;;;4.60;99.90;;;;;;4990810;28;20825;-77
2022/01/31 12:34:00;;;;;;;1.53;0.77;;;4.60;99.90;;;;;;4990413;28;20421;-77
2022/01/31 12:36:34;;;;;;;2.33;0.90;;;4.60;99.90;;;;;;4990391;28;20203;-75
2022/01/31 12:39:20;;;;;;;4.00;0.80;;;4.60;99.90;;;;;;4990544;28;20421;-77
2022/01/31 12:41:46;;;;;;;1.10;0.80;;;4.60;99.90;;;;;;4990523;28;20533;-77
2022/01/31 12:44:31;;;;;;;2.50;1.00;;;4.50;99.90;;;;;;4972885;28;20339;-77
2022/01/31 12:47:19;;;;;;;1.77;0.73;;;4.50;99.90;;;;;;4990454;28;20208;-77
2022/01/31 12:50:05;;;;;;;2.17;0.80;;;4.60;99.90;;;;;;4990305;28;20421;-77
2022/01/31 12:52:36;;;;;;;2.75;0.85;;;4.60;99.90;;;;;;4989988;28;20900;-77
2022/01/31 12:55:11;;;;;;;1.70;1.23;;;4.50;99.90;;;;;;4990325;28;20204;-77
2022/01/31 12:57:52;;;;;;;1.88;1.13;;;4.50;99.90;;;;;;4988175;28;20908;-78
2022/01/31 13:00:33;;;;;;;2.88;0.90;;;4.40;99.90;;;;;;4972784;28;20803;-74
2022/01/31 13:02:58;;;;;;;3.10;0.88;;;4.40;99.90;;;;;;4990304;28;20212;-77
2022/01/31 13:05:36;;;;;;;1.97;0.50;;;4.30;99.90;;;;;;4988809;28;20265;-77
2022/01/31 13:08:20;;;;;;;4.63;1.43;;;4.20;99.90;;;;;;4989310;28;20211;-77
2022/01/31 13:10:46;;;;;;;4.65;1.00;;;4.20;99.90;;;;;;4989658;28;20436;-77
2022/01/31 13:13:12;;;;;;;4.23;1.10;;;4.20;99.90;;;;;;4988033;28;20501;-78
2022/01/31 13:15:38;;;;;;;1.90;0.90;;;4.10;99.90;;;;;;4989318;28;20181;-77
2022/01/31 13:18:04;;;;;;;5.00;1.27;;;4.00;99.90;;;;;;4971468;28;20213;-77
2022/01/31 13:20:31;;;;;;;5.63;1.20;;;4.00;99.90;;;;;;4989264;28;20541;-77
2022/01/31 13:22:57;;;;;;;5.13;0.93;;;4.00;99.90;;;;;;4989320;28;20229;-77
2022/01/31 13:25:22;;;;;;;2.60;1.30;;;4.00;99.90;;;;;;4989436;28;20186;-76
2022/01/31 13:27:48;;;;;;;2.70;1.00;;;3.90;99.90;;;;;;4988306;28;20451;-76
2022/01/31 13:30:23;;;;;;;1.97;0.73;;;3.90;99.90;;;;;;4987802;28;20269;-77
2022/01/31 13:32:49;;;;;;;6.32;1.30;;;3.80;99.90;;;;;;4988917;28;20644;-77
2022/01/31 13:35:20;;;;;;;1.98;0.90;;;3.80;99.90;;;;;;4989068;28;20249;-77
2022/01/31 13:37:56;;;;;;;3.70;1.15;;;3.80;99.90;;;;;;4988781;28;20288;-77